createdAt,value
2023-12-30T00:00:19.710Z,0.35
2023-12-30T00:02:48.296Z,0.30
2023-12-30T00:05:15.857Z,0.50
2023-12-30T00:07:43.150Z,0.50
2023-12-30T00:10:10.178Z,0.52
2023-12-30T00:12:37.380Z,0.50
2023-12-30T00:15:04.738Z,1.00
2023-12-30T00:17:31.566Z,0.70
2023-12-30T00:19:58.468Z,0.30
2023-12-30T00:22:25.341Z,0.50
2023-12-30T00:24:52.190Z,0.65
2023-12-30T00:27:18.994Z,0.50
2023-12-30T00:29:45.842Z,0.60
2023-12-30T00:32:12.529Z,0.60
2023-12-30T00:34:39.296Z,0.32
2023-12-30T00:37:06.070Z,0.30
2023-12-30T00:39:32.889Z,0.40
2023-12-30T00:41:59.627Z,0.60
2023-12-30T00:44:26.386Z,0.63
2023-12-30T00:46:53.143Z,0.82
2023-12-30T00:49:20.003Z,0.57
2023-12-30T00:51:47.417Z,0.40
2023-12-30T00:54:14.266Z,0.50
2023-12-30T00:56:40.987Z,0.50
2023-12-30T00:59:07.696Z,0.57
2023-12-30T01:01:34.687Z,0.50
2023-12-30T01:04:01.765Z,1.25
2023-12-30T01:06:28.599Z,0.43
2023-12-30T01:08:55.305Z,0.35
2023-12-30T01:11:22.019Z,0.20
2023-12-30T01:13:48.732Z,0.40
2023-12-30T01:16:17.916Z,0.43
2023-12-30T01:18:46.425Z,0.28
2023-12-30T01:21:13.227Z,0.32
2023-12-30T01:23:40.050Z,0.52
2023-12-30T01:26:06.813Z,0.60
2023-12-30T01:28:35.178Z,0.30
2023-12-30T01:31:02.184Z,0.30
2023-12-30T01:33:29.118Z,0.30
2023-12-30T01:35:56.597Z,0.30
2023-12-30T01:38:23.281Z,0.60
2023-12-30T01:40:50.001Z,0.30
2023-12-30T01:43:30.595Z,0.50
2023-12-30T01:46:01.026Z,0.30
2023-12-30T01:48:28.946Z,0.40
2023-12-30T01:51:00.109Z,0.50
2023-12-30T01:53:33.723Z,0.45
2023-12-30T01:56:01.517Z,0.35
2023-12-30T01:58:28.843Z,0.60
2023-12-30T02:00:56.853Z,0.60
2023-12-30T02:03:24.350Z,1.25
2023-12-30T02:05:51.461Z,0.40
2023-12-30T02:08:18.754Z,0.60
2023-12-30T02:10:45.641Z,0.77
2023-12-30T02:13:12.415Z,0.68
2023-12-30T02:15:39.133Z,0.60
2023-12-30T02:18:06.073Z,0.85
2023-12-30T02:20:34.564Z,0.68
2023-12-30T02:23:01.715Z,0.73
2023-12-30T02:25:28.767Z,1.00
2023-12-30T02:27:55.590Z,1.10
2023-12-30T02:30:25.076Z,1.80
2023-12-30T02:32:58.175Z,0.93
2023-12-30T02:35:25.800Z,1.50
2023-12-30T02:37:52.895Z,1.10
2023-12-30T02:40:20.069Z,1.52
2023-12-30T02:42:46.957Z,1.20
2023-12-30T02:45:13.981Z,1.27
2023-12-30T02:47:40.801Z,1.45
2023-12-30T02:50:08.282Z,1.40
2023-12-30T02:52:35.213Z,1.38
2023-12-30T02:55:03.086Z,1.30
2023-12-30T02:57:29.938Z,1.10
2023-12-30T02:59:56.648Z,1.33
2023-12-30T03:02:24.780Z,1.35
2023-12-30T03:04:53.182Z,1.17
2023-12-30T03:07:20.099Z,1.60
2023-12-30T03:09:46.845Z,1.08
2023-12-30T03:12:15.992Z,0.93
2023-12-30T03:14:42.691Z,1.13
2023-12-30T03:17:09.373Z,1.15
2023-12-30T03:19:36.109Z,1.50
2023-12-30T03:22:03.499Z,0.93
2023-12-30T03:24:30.220Z,1.25
2023-12-30T03:26:56.930Z,0.80
2023-12-30T03:29:23.648Z,1.33
2023-12-30T03:31:52.947Z,0.85
2023-12-30T03:34:19.870Z,1.20
2023-12-30T03:36:46.574Z,1.00
2023-12-30T03:39:13.279Z,0.98
2023-12-30T03:41:40.019Z,1.38
2023-12-30T03:44:06.765Z,1.13
2023-12-30T03:46:33.502Z,1.55
2023-12-30T03:49:00.368Z,1.70
2023-12-30T03:51:27.094Z,1.90
2023-12-30T03:53:53.854Z,1.10
2023-12-30T03:56:20.599Z,2.35
2023-12-30T03:58:47.305Z,1.52
2023-12-30T04:01:14.116Z,1.83
2023-12-30T04:03:40.877Z,1.55
2023-12-30T04:06:15.841Z,1.90
2023-12-30T04:08:42.560Z,1.10
2023-12-30T04:11:09.269Z,1.40
2023-12-30T04:13:36.333Z,1.95
2023-12-30T04:16:03.224Z,1.70
2023-12-30T04:18:29.939Z,1.60
2023-12-30T04:20:56.767Z,1.77
2023-12-30T04:23:25.370Z,1.42
2023-12-30T04:25:52.110Z,1.48
2023-12-30T04:28:18.889Z,1.92
2023-12-30T04:30:45.793Z,1.30
2023-12-30T04:33:13.018Z,1.38
2023-12-30T04:35:42.299Z,1.90
2023-12-30T04:38:09.091Z,1.60
2023-12-30T04:40:35.907Z,2.58
2023-12-30T04:43:03.672Z,1.15
2023-12-30T04:45:30.513Z,1.70
2023-12-30T04:47:57.376Z,1.40
2023-12-30T04:50:24.864Z,1.83
2023-12-30T04:52:52.068Z,1.85
2023-12-30T04:55:18.844Z,2.30
2023-12-30T04:57:48.861Z,1.50
2023-12-30T05:00:19.249Z,1.40
2023-12-30T05:02:47.590Z,1.83
2023-12-30T05:05:14.361Z,1.25
2023-12-30T05:07:41.043Z,1.40
2023-12-30T05:10:10.812Z,1.63
2023-12-30T05:12:37.784Z,2.53
2023-12-30T05:15:04.995Z,1.60
2023-12-30T05:17:32.896Z,1.70
2023-12-30T05:19:59.589Z,1.73
2023-12-30T05:22:26.398Z,1.75
2023-12-30T05:24:53.233Z,2.55
2023-12-30T05:27:19.984Z,1.58
2023-12-30T05:29:46.981Z,1.60
2023-12-30T05:32:13.692Z,1.77
2023-12-30T05:34:40.436Z,1.65
2023-12-30T05:37:07.397Z,1.60
2023-12-30T05:39:34.290Z,1.25
2023-12-30T05:42:00.980Z,1.70
2023-12-30T05:44:27.694Z,1.85
2023-12-30T05:46:54.399Z,1.95
2023-12-30T05:49:21.223Z,1.95
2023-12-30T05:51:48.019Z,1.60
2023-12-30T05:54:14.754Z,1.95
2023-12-30T05:56:41.447Z,2.10
2023-12-30T05:59:08.248Z,1.67
2023-12-30T06:01:35.074Z,2.08
2023-12-30T06:04:01.982Z,1.35
2023-12-30T06:06:30.567Z,1.70
2023-12-30T06:08:58.862Z,2.05
2023-12-30T06:11:25.586Z,2.15
2023-12-30T06:13:53.047Z,1.50
2023-12-30T06:16:19.840Z,2.38
2023-12-30T06:18:46.618Z,1.77
2023-12-30T06:21:13.524Z,1.85
2023-12-30T06:23:40.231Z,2.00
2023-12-30T06:26:06.974Z,1.65
2023-12-30T06:28:33.784Z,1.52
2023-12-30T06:31:01.002Z,1.90
2023-12-30T06:33:27.915Z,2.45
2023-12-30T06:35:54.788Z,2.67
2023-12-30T06:38:21.503Z,1.73
2023-12-30T06:40:48.508Z,1.55
2023-12-30T06:43:15.959Z,1.60
2023-12-30T06:45:42.706Z,1.75
2023-12-30T06:48:09.732Z,1.63
2023-12-30T06:50:36.796Z,1.90
2023-12-30T06:53:04.098Z,1.48
2023-12-30T06:55:35.584Z,1.95
2023-12-30T06:58:09.375Z,2.10
2023-12-30T07:00:37.019Z,1.17
2023-12-30T07:03:04.749Z,1.45
2023-12-30T07:05:36.943Z,1.77
2023-12-30T07:08:04.201Z,1.88
2023-12-30T07:10:30.946Z,1.55
2023-12-30T07:12:57.707Z,2.22
2023-12-30T07:15:24.738Z,2.30
2023-12-30T07:17:51.483Z,2.58
2023-12-30T07:20:18.222Z,2.30
2023-12-30T07:22:45.125Z,2.63
2023-12-30T07:25:12.043Z,1.95
2023-12-30T07:27:39.019Z,1.63
2023-12-30T07:30:06.473Z,3.30
2023-12-30T07:32:34.099Z,2.05
2023-12-30T07:35:01.172Z,2.10
2023-12-30T07:37:28.822Z,1.70
2023-12-30T07:39:55.918Z,1.73
2023-12-30T07:42:24.032Z,2.05
2023-12-30T07:44:54.158Z,2.00
2023-12-30T07:47:21.427Z,1.83
2023-12-30T07:49:48.847Z,1.98
2023-12-30T07:52:15.699Z,2.00
2023-12-30T07:54:42.570Z,1.85
2023-12-30T07:57:09.445Z,1.73
2023-12-30T07:59:36.232Z,1.83
2023-12-30T08:02:03.443Z,1.73
2023-12-30T08:04:30.447Z,1.70
2023-12-30T08:06:57.395Z,1.65
2023-12-30T08:09:24.429Z,1.85
2023-12-30T08:11:59.243Z,1.35
2023-12-30T08:16:56.188Z,1.10
2023-12-30T08:19:22.946Z,1.25
2023-12-30T08:21:49.743Z,1.30
2023-12-30T08:24:17.739Z,1.73
2023-12-30T08:26:44.598Z,1.63
2023-12-30T08:29:11.404Z,1.60
2023-12-30T08:31:38.554Z,2.45
2023-12-30T08:34:05.517Z,1.85
2023-12-30T08:36:32.458Z,1.42
2023-12-30T08:38:59.145Z,1.58
2023-12-30T08:41:28.805Z,1.42
2023-12-30T08:43:57.619Z,1.08
2023-12-30T08:46:24.615Z,1.65
2023-12-30T08:48:51.541Z,1.80
2023-12-30T08:51:18.503Z,1.13
2023-12-30T08:53:45.249Z,1.80
2023-12-30T08:56:12.562Z,2.45
2023-12-30T08:58:39.367Z,1.30
2023-12-30T09:01:07.211Z,1.20
2023-12-30T09:03:34.073Z,1.52
2023-12-30T09:06:00.909Z,1.23
2023-12-30T09:08:27.974Z,1.60
2023-12-30T09:10:54.842Z,1.73
2023-12-30T09:13:21.612Z,1.52
2023-12-30T09:15:48.393Z,2.90
2023-12-30T09:18:15.730Z,1.52
2023-12-30T09:20:43.255Z,1.38
2023-12-30T09:23:10.012Z,1.40
2023-12-30T09:25:37.530Z,1.45
2023-12-30T09:28:04.777Z,1.60
2023-12-30T09:30:31.645Z,1.45
2023-12-30T09:32:58.481Z,1.85
2023-12-30T09:35:25.273Z,1.77
2023-12-30T09:37:52.102Z,1.60
2023-12-30T09:40:19.253Z,2.85
2023-12-30T09:42:49.465Z,2.33
2023-12-30T09:45:16.980Z,1.90
2023-12-30T09:47:46.914Z,2.08
2023-12-30T09:50:14.392Z,2.22
2023-12-30T09:52:41.314Z,2.97
2023-12-30T09:55:08.580Z,2.72
2023-12-30T09:57:35.742Z,2.38
2023-12-30T10:00:06.492Z,3.65
2023-12-30T10:02:34.402Z,2.58
2023-12-30T10:05:02.377Z,2.00
2023-12-30T10:07:32.750Z,2.72
2023-12-30T10:09:59.627Z,1.73
2023-12-30T10:12:26.799Z,2.45
2023-12-30T10:14:53.684Z,3.33
2023-12-30T10:17:21.378Z,2.60
2023-12-30T10:19:48.547Z,2.35
2023-12-30T10:22:15.804Z,2.30
2023-12-30T10:24:43.326Z,2.30
2023-12-30T10:27:11.493Z,2.03
2023-12-30T10:29:46.971Z,1.88
2023-12-30T10:32:22.219Z,2.53
2023-12-30T10:34:49.260Z,2.65
2023-12-30T10:37:17.301Z,2.95
2023-12-30T10:39:47.931Z,2.60
2023-12-30T10:42:14.963Z,2.70
2023-12-30T10:44:41.809Z,2.90
2023-12-30T10:47:11.399Z,2.50
2023-12-30T10:49:41.232Z,2.25
2023-12-30T10:52:12.999Z,2.70
2023-12-30T10:54:47.289Z,2.53
2023-12-30T10:57:18.549Z,2.10
2023-12-30T10:59:50.368Z,1.50
2023-12-30T11:02:18.682Z,2.60
2023-12-30T11:04:46.878Z,1.92
2023-12-30T11:07:16.274Z,2.15
2023-12-30T11:09:44.037Z,2.53
2023-12-30T11:12:11.310Z,1.88
2023-12-30T11:14:38.450Z,1.75
2023-12-30T11:17:05.443Z,2.13
2023-12-30T11:19:34.409Z,2.45
2023-12-30T11:22:03.703Z,1.83
2023-12-30T11:24:30.994Z,2.70
2023-12-30T11:26:57.932Z,2.55
2023-12-30T11:29:27.571Z,1.83
2023-12-30T11:31:55.868Z,2.60
2023-12-30T11:34:23.403Z,2.85
2023-12-30T11:36:52.930Z,2.13
2023-12-30T11:39:29.770Z,1.90
2023-12-30T11:41:59.660Z,2.28
2023-12-30T11:44:28.716Z,1.92
2023-12-30T11:46:55.718Z,2.33
2023-12-30T11:49:24.398Z,1.60
2023-12-30T11:52:01.305Z,2.40
2023-12-30T11:54:28.299Z,1.88
2023-12-30T11:56:55.068Z,1.98
2023-12-30T11:59:21.860Z,2.40
2023-12-30T12:01:48.835Z,1.75
2023-12-30T12:04:15.927Z,1.90
2023-12-30T12:06:42.770Z,1.98
2023-12-30T12:09:09.557Z,1.67
2023-12-30T12:11:36.292Z,2.05
2023-12-30T12:14:03.153Z,2.30
2023-12-30T12:16:32.979Z,2.15
2023-12-30T12:19:04.713Z,2.38
2023-12-30T12:23:58.430Z,2.40
2023-12-30T12:26:25.898Z,1.83
2023-12-30T12:28:54.929Z,1.80
2023-12-30T12:31:21.935Z,3.75
2023-12-30T12:33:49.569Z,2.45
2023-12-30T12:36:18.784Z,2.55
2023-12-30T12:38:45.921Z,2.40
2023-12-30T12:41:14.024Z,1.92
2023-12-30T12:43:40.891Z,2.53
2023-12-30T12:46:09.184Z,2.33
2023-12-30T12:48:37.055Z,1.98
2023-12-30T12:51:04.176Z,2.38
2023-12-30T12:53:31.004Z,2.35
2023-12-30T12:55:57.863Z,2.90
2023-12-30T12:58:24.678Z,1.75
2023-12-30T13:00:51.478Z,1.73
2023-12-30T13:03:18.291Z,2.30
2023-12-30T13:05:45.148Z,1.77
2023-12-30T13:08:12.408Z,2.72
2023-12-30T13:10:47.254Z,1.98
2023-12-30T13:13:14.473Z,1.98
2023-12-30T13:15:41.264Z,2.92
2023-12-30T13:18:12.758Z,2.17
2023-12-30T13:20:42.607Z,1.95
2023-12-30T13:23:11.939Z,2.40
2023-12-30T13:25:39.358Z,2.75
2023-12-30T13:28:07.556Z,2.10
2023-12-30T13:30:35.665Z,2.35
2023-12-30T13:33:06.154Z,1.60
2023-12-30T13:35:37.513Z,2.70
2023-12-30T13:38:13.918Z,2.85
2023-12-30T13:40:42.248Z,2.42
2023-12-30T13:43:10.519Z,2.42
2023-12-30T13:45:44.659Z,2.20
2023-12-30T13:48:30.242Z,2.22
2023-12-30T13:51:01.180Z,1.73
2023-12-30T13:53:28.993Z,2.38
2023-12-30T13:56:06.942Z,2.50
2023-12-30T13:58:34.300Z,1.90
2023-12-30T14:01:01.619Z,2.25
2023-12-30T14:03:28.758Z,2.10
2023-12-30T14:05:56.028Z,1.65
2023-12-30T14:08:43.310Z,2.30
2023-12-30T14:11:22.021Z,2.40
2023-12-30T14:13:51.377Z,2.00
2023-12-30T14:16:18.702Z,2.70
2023-12-30T14:18:45.501Z,2.22
2023-12-30T14:21:12.390Z,2.45
2023-12-30T14:23:39.113Z,2.08
2023-12-30T14:26:05.809Z,2.25
2023-12-30T14:28:32.633Z,2.53
2023-12-30T14:30:59.468Z,2.22
2023-12-30T14:33:26.367Z,2.22
2023-12-30T14:35:53.213Z,2.50
2023-12-30T14:38:20.415Z,2.47
2023-12-30T14:40:47.311Z,2.70
2023-12-30T14:43:14.323Z,2.53
2023-12-30T14:45:41.197Z,2.20
2023-12-30T14:48:08.084Z,2.10
2023-12-30T14:50:34.877Z,2.22
2023-12-30T14:53:01.901Z,2.35
2023-12-30T14:55:28.999Z,1.92
2023-12-30T14:57:57.996Z,2.25
2023-12-30T15:00:25.318Z,1.70
2023-12-30T15:02:53.788Z,1.75
2023-12-30T15:05:23.124Z,1.92
2023-12-30T15:07:53.587Z,2.67
2023-12-30T15:10:23.114Z,1.90
2023-12-30T15:12:49.936Z,1.85
2023-12-30T15:15:16.727Z,1.33
2023-12-30T15:17:43.732Z,2.42
2023-12-30T15:20:10.910Z,1.85
2023-12-30T15:22:39.070Z,1.50
2023-12-30T15:25:06.638Z,1.50
2023-12-30T15:27:33.679Z,1.50
2023-12-30T15:30:00.650Z,1.80
2023-12-30T15:32:27.855Z,1.40
2023-12-30T15:34:55.005Z,1.45
2023-12-30T15:37:22.108Z,1.45
2023-12-30T15:39:48.943Z,1.45
2023-12-30T15:42:16.442Z,1.40
2023-12-30T15:44:43.832Z,1.98
2023-12-30T15:47:11.675Z,1.58
2023-12-30T15:49:40.834Z,1.00
2023-12-30T15:52:09.013Z,1.45
2023-12-30T15:54:36.727Z,1.30
2023-12-30T15:57:04.020Z,1.70
2023-12-30T15:59:30.813Z,1.42
2023-12-30T16:01:57.691Z,3.55
2023-12-30T16:04:24.479Z,1.70
2023-12-30T16:06:51.331Z,1.15
2023-12-30T16:09:18.737Z,1.60
2023-12-30T16:11:45.529Z,1.58
2023-12-30T16:14:13.716Z,1.40
2023-12-30T16:16:45.231Z,2.75
2023-12-30T16:19:17.125Z,5.22
2023-12-30T16:21:45.945Z,6.47
2023-12-30T16:24:14.557Z,3.47
2023-12-30T16:26:41.827Z,3.70
2023-12-30T16:29:09.486Z,2.15
2023-12-30T16:31:36.448Z,2.50
2023-12-30T16:34:03.898Z,1.90
2023-12-30T16:36:31.569Z,1.50
2023-12-30T16:38:58.514Z,3.20
2023-12-30T16:41:25.501Z,1.80
2023-12-30T16:43:52.646Z,1.52
2023-12-30T16:46:20.164Z,1.90
2023-12-30T16:48:47.403Z,1.58
2023-12-30T16:51:14.721Z,1.77
2023-12-30T16:53:42.504Z,1.70
2023-12-30T16:56:10.049Z,1.67
2023-12-30T16:58:37.134Z,1.90
2023-12-30T17:01:05.334Z,1.30
2023-12-30T17:03:32.342Z,1.83
2023-12-30T17:05:59.299Z,2.10
2023-12-30T17:08:26.086Z,2.60
2023-12-30T17:10:52.823Z,3.70
2023-12-30T17:13:23.054Z,2.20
2023-12-30T17:15:54.098Z,2.17
2023-12-30T17:18:21.032Z,1.98
2023-12-30T17:20:47.957Z,1.73
2023-12-30T17:23:14.729Z,1.90
2023-12-30T17:25:41.586Z,1.73
2023-12-30T17:28:09.715Z,1.83
2023-12-30T17:30:36.576Z,2.33
2023-12-30T17:33:04.225Z,1.75
2023-12-30T17:35:31.740Z,2.53
2023-12-30T17:37:59.122Z,2.67
2023-12-30T17:40:25.984Z,1.83
2023-12-30T17:42:52.733Z,1.77
2023-12-30T17:45:19.788Z,1.55
2023-12-30T17:47:47.661Z,2.60
2023-12-30T17:50:14.930Z,1.90
2023-12-30T17:52:41.772Z,2.95
2023-12-30T17:55:09.404Z,1.70
2023-12-30T17:57:36.188Z,1.70
2023-12-30T18:00:03.085Z,1.75
2023-12-30T18:02:31.494Z,2.33
2023-12-30T18:04:58.333Z,1.77
2023-12-30T18:07:25.156Z,2.25
2023-12-30T18:09:51.911Z,1.75
2023-12-30T18:12:19.050Z,1.58
2023-12-30T18:14:46.021Z,2.00
2023-12-30T18:17:12.843Z,1.65
2023-12-30T18:19:39.588Z,2.13
2023-12-30T18:22:06.390Z,2.10
2023-12-30T18:24:33.337Z,2.00
2023-12-30T18:27:00.083Z,2.90
2023-12-30T18:29:27.060Z,2.97
2023-12-30T18:31:53.835Z,3.85
2023-12-30T18:34:20.785Z,2.10
2023-12-30T18:36:47.578Z,1.80
2023-12-30T18:39:14.975Z,2.65
2023-12-30T18:41:41.877Z,1.90
2023-12-30T18:44:08.767Z,1.70
2023-12-30T18:46:35.936Z,1.63
2023-12-30T18:49:02.946Z,2.72
2023-12-30T18:51:29.812Z,2.40
2023-12-30T18:53:56.679Z,2.22
2023-12-30T18:56:23.466Z,1.83
2023-12-30T18:58:50.633Z,2.28
2023-12-30T19:01:17.882Z,2.05
2023-12-30T19:03:44.861Z,2.50
2023-12-30T19:06:11.750Z,2.03
2023-12-30T19:08:39.518Z,1.90
2023-12-30T19:11:06.890Z,2.15
2023-12-30T19:13:33.878Z,1.30
2023-12-30T19:16:00.725Z,1.40
2023-12-30T19:18:27.537Z,1.30
2023-12-30T19:20:56.556Z,1.70
2023-12-30T19:23:23.572Z,1.50
2023-12-30T19:25:50.752Z,2.13
2023-12-30T19:28:17.641Z,1.65
2023-12-30T19:30:44.444Z,1.33
2023-12-30T19:33:13.386Z,1.50
2023-12-30T19:35:42.662Z,1.50
2023-12-30T19:38:09.732Z,1.33
2023-12-30T19:40:36.754Z,1.35
2023-12-30T19:43:05.263Z,1.10
2023-12-30T19:45:32.275Z,1.35
2023-12-30T19:48:00.084Z,1.05
2023-12-30T19:50:28.734Z,1.27
2023-12-30T19:52:56.105Z,1.00
2023-12-30T19:55:23.073Z,1.35
2023-12-30T19:57:49.860Z,0.95
2023-12-30T20:00:17.054Z,1.35
2023-12-30T20:02:45.316Z,1.80
2023-12-30T20:05:19.202Z,0.80
2023-12-30T20:07:46.108Z,1.10
2023-12-30T20:10:13.179Z,1.27
2023-12-30T20:12:40.051Z,1.25
2023-12-30T20:15:10.271Z,1.80
2023-12-30T20:17:37.224Z,1.50
2023-12-30T20:20:07.813Z,1.40
2023-12-30T20:22:34.759Z,1.67
2023-12-30T20:25:01.938Z,1.48
2023-12-30T20:27:28.905Z,1.80
2023-12-30T20:29:55.802Z,1.35
2023-12-30T20:32:23.049Z,1.67
2023-12-30T20:34:50.693Z,1.65
2023-12-30T20:37:19.010Z,1.60
2023-12-30T20:39:46.662Z,1.75
2023-12-30T20:42:13.880Z,2.03
2023-12-30T20:44:41.151Z,1.80
2023-12-30T20:47:10.498Z,1.05
2023-12-30T20:49:38.774Z,1.70
2023-12-30T20:52:05.912Z,1.70
2023-12-30T20:54:33.521Z,1.15
2023-12-30T20:57:01.326Z,1.58
2023-12-30T20:59:28.128Z,1.60
2023-12-30T21:01:55.434Z,1.40
2023-12-30T21:04:22.253Z,1.65
2023-12-30T21:06:49.097Z,1.27
2023-12-30T21:09:15.873Z,1.38
2023-12-30T21:11:43.198Z,1.10
2023-12-30T21:14:10.059Z,1.00
2023-12-30T21:16:37.126Z,1.30
2023-12-30T21:19:04.308Z,1.10
2023-12-30T21:21:31.204Z,1.00
2023-12-30T21:23:58.063Z,1.13
2023-12-30T21:26:25.795Z,0.95
2023-12-30T21:28:52.557Z,1.00
2023-12-30T21:31:19.374Z,1.23
2023-12-30T21:33:46.249Z,1.20
2023-12-30T21:36:15.881Z,0.80
2023-12-30T21:38:44.365Z,0.85
2023-12-30T21:41:12.862Z,0.80
2023-12-30T21:43:42.871Z,0.85
2023-12-30T21:46:09.650Z,0.88
2023-12-30T21:48:36.508Z,1.00
2023-12-30T21:51:07.576Z,1.00
2023-12-30T21:53:34.408Z,0.65
2023-12-30T21:56:01.214Z,1.20
2023-12-30T21:58:28.032Z,1.00
2023-12-30T22:00:54.818Z,0.80
2023-12-30T22:03:21.728Z,0.70
2023-12-30T22:05:48.639Z,1.10
2023-12-30T22:08:16.843Z,0.90
2023-12-30T22:10:43.808Z,0.85
2023-12-30T22:13:11.430Z,0.93
2023-12-30T22:15:38.393Z,0.90
2023-12-30T22:18:05.643Z,0.77
2023-12-30T22:20:32.608Z,0.82
2023-12-30T22:22:59.353Z,0.88
2023-12-30T22:25:26.184Z,1.27
2023-12-30T22:27:52.949Z,0.80
2023-12-30T22:30:19.755Z,0.90
2023-12-30T22:32:46.584Z,0.77
2023-12-30T22:35:14.518Z,0.80
2023-12-30T22:37:42.522Z,0.77
2023-12-30T22:40:13.342Z,0.75
2023-12-30T22:42:40.381Z,1.33
2023-12-30T22:45:08.082Z,1.05
2023-12-30T22:47:37.161Z,1.00
2023-12-30T22:50:07.949Z,1.83
2023-12-30T22:52:35.334Z,3.60
2023-12-30T22:55:03.236Z,4.30
2023-12-30T22:57:30.892Z,4.45
2023-12-30T22:59:57.716Z,3.60
2023-12-30T23:02:24.498Z,2.30
2023-12-30T23:04:51.646Z,2.40
2023-12-30T23:07:18.557Z,1.80
2023-12-30T23:09:48.669Z,1.98
2023-12-30T23:12:15.501Z,1.70
2023-12-30T23:14:42.328Z,1.23
2023-12-30T23:17:09.362Z,1.15
2023-12-30T23:19:36.725Z,1.30
2023-12-30T23:22:03.604Z,1.20
2023-12-30T23:24:30.477Z,1.10
2023-12-30T23:26:57.353Z,1.10
2023-12-30T23:29:26.080Z,0.68
2023-12-30T23:31:52.850Z,1.38
2023-12-30T23:34:19.635Z,1.17
2023-12-30T23:36:46.431Z,1.17
2023-12-30T23:39:13.400Z,0.73
2023-12-30T23:41:40.152Z,1.00
2023-12-30T23:44:06.884Z,0.90
2023-12-30T23:46:34.544Z,0.70
2023-12-30T23:49:01.330Z,0.90
2023-12-30T23:51:28.073Z,0.70
2023-12-30T23:53:54.821Z,0.60
2023-12-30T23:56:21.687Z,0.80
2023-12-30T23:58:48.455Z,0.60
